Aérodrome :
LOGIN :

S'inscrire | Disclaimer

   EN    FR    IT 

 










Légende :    VFR   VFR Marginal   IFR   IFR Intensif   IFR Très Intensif
Visi : 
Plafond : 
>= 8 km
>= 3000ft
5 à 8 km
1000 à 3000 ft
1500m à 5 km
500 à 1000 ft
800 à 1500m
200 à 500 ft
< 800m
< 200 ft
Symboles :   Orages  Brouillard  Fortes neiges  Fortes précipitations  Vent > 20 kt
SIGMETs :   Divers  Orages  Givrage  Turbulence  Onde Orograph.  Cendres Volcan.







- Altitude de l'aérodrome : 645 ft
- Code IATA : DLE
- Voir les cartes d'approche


LFGJ - Dole Tavaux

DERNIER METAR :
  • 210900Z AUTO 23013KT CAVOK 23/15 Q1015 BECMG 23015G25KT

METARs EXPIRÉS :
  • 210830Z AUTO 23013KT CAVOK 23/14 Q1015 BECMG 23015G25KT
  • 210800Z AUTO 21011KT CAVOK 23/14 Q1015 BECMG 23015G25KT
  • 210730Z AUTO 21014KT CAVOK 21/15 Q1015 BECMG 23015G25KT
  • 210700Z AUTO 22011KT CAVOK 21/15 Q1014 BECMG 23015G25KT
  • 210630Z AUTO 21009KT 190V250 CAVOK 20/15 Q1014 BECMG 23015G25KT

TAF AMD TAF LFGJ
Valide du 21 à 09h jusqu'au 21 à 18h UTC


210927Z 2109/2118 23015G25KT CAVOK
TEMPO 2113/2116 4000 RA BKN030TCU
PROB40
TEMPO 2115/2116 30015G30KT 2000 RA BKN008
FM211600 30005KT CAVOK
Pas de NOTAMs connus pour ce terrain.



MET'MAP, la Météo Aéronautique d'un coup d'oeil ! - Copyright ORBIFLY Décembre 2007 - Disclaimer

ORBIFLY MET'MAP TEAM :

Programmation & Développement : Alexandra Zaïnal
Conception & Développement : Baudouin d'Aumeries
Co-Programmation & Développement : Marc-Olivier Méhu
Soutien technique & logistique : Manuel Goepfert

Contact : metmap@orbifly.com




SOURCES & CREDITS :

   NOAA